createdAt,value
2019-05-15T00:00:18.393Z,53.85
2019-05-15T00:01:19.089Z,53.92
2019-05-15T00:02:18.427Z,54.36
2019-05-15T00:03:19.574Z,55.49
2019-05-15T00:04:18.640Z,53.85
2019-05-15T00:05:18.786Z,53.72
2019-05-15T00:06:19.106Z,53.61
2019-05-15T00:07:18.335Z,53.61
2019-05-15T00:08:18.374Z,55.66
2019-05-15T00:09:19.160Z,54.15
2019-05-15T00:10:18.086Z,54.25
2019-05-15T00:11:19.042Z,54.77
2019-05-15T00:12:18.919Z,54.97
2019-05-15T00:13:18.486Z,54.05
2019-05-15T00:14:18.217Z,53.72
2019-05-15T00:15:18.242Z,53.82
2019-05-15T00:16:18.069Z,55.15
2019-05-15T00:17:19.011Z,55.28
2019-05-15T00:18:18.528Z,54.97
2019-05-15T00:19:18.748Z,55.79
2019-05-15T00:20:16.843Z,55.10
2019-05-15T00:21:17.973Z,54.77
2019-05-15T00:22:18.334Z,54.87
2019-05-15T00:23:18.297Z,55.08
2019-05-15T00:24:17.865Z,53.95
2019-05-15T00:25:18.819Z,55.08
2019-05-15T00:26:18.179Z,54.97
2019-05-15T00:27:16.770Z,55.18
2019-05-15T00:28:18.514Z,55.08
2019-05-15T00:29:19.764Z,54.25
2019-05-15T00:30:18.366Z,54.46
2019-05-15T00:31:18.635Z,55.72
2019-05-15T00:32:18.636Z,55.62
2019-05-15T00:33:19.146Z,56.13
2019-05-15T00:34:18.264Z,55.62
2019-05-15T00:35:18.403Z,55.10
2019-05-15T00:36:19.034Z,54.97
2019-05-15T00:37:18.203Z,54.66
2019-05-15T00:38:18.623Z,55.00
2019-05-15T00:39:18.814Z,55.08
2019-05-15T00:40:18.359Z,55.28
2019-05-15T00:41:18.450Z,55.82
2019-05-15T00:42:18.828Z,55.72
2019-05-15T00:43:18.343Z,55.10
2019-05-15T00:44:18.693Z,55.41
2019-05-15T00:45:18.504Z,55.21
2019-05-15T00:46:18.296Z,54.90
2019-05-15T00:47:18.083Z,53.95
2019-05-15T00:48:18.303Z,53.95
2019-05-15T00:49:18.772Z,53.95
2019-05-15T00:50:18.205Z,53.95
2019-05-15T00:51:16.513Z,55.00
2019-05-15T00:52:18.069Z,55.00
2019-05-15T00:53:16.542Z,55.62
2019-05-15T00:54:18.991Z,55.51
2019-05-15T00:55:18.864Z,55.21
2019-05-15T00:56:16.467Z,55.00
2019-05-15T00:57:16.452Z,54.90
2019-05-15T00:58:16.430Z,55.30
2019-05-15T00:59:24.129Z,55.51
2019-05-15T01:00:18.662Z,54.59
2019-05-15T01:01:16.399Z,55.00
2019-05-15T01:02:17.883Z,54.79
2019-05-15T01:03:18.252Z,55.21
2019-05-15T01:04:18.571Z,55.00
2019-05-15T01:05:18.520Z,54.49
2019-05-15T01:06:18.931Z,54.49
2019-05-15T01:07:18.672Z,55.33
2019-05-15T01:08:18.891Z,54.90
2019-05-15T01:09:18.544Z,55.00
2019-05-15T01:10:16.308Z,55.21
2019-05-15T01:11:16.295Z,55.00
2019-05-15T01:12:18.423Z,55.00
2019-05-15T01:13:18.799Z,55.72
2019-05-15T01:14:18.467Z,55.51
2019-05-15T01:15:18.343Z,55.13
2019-05-15T01:16:18.456Z,55.43
2019-05-15T01:17:18.334Z,55.43
2019-05-15T01:18:18.529Z,55.64
2019-05-15T01:19:18.394Z,56.15
2019-05-15T01:20:16.202Z,55.85
2019-05-15T01:21:18.610Z,56.38
2019-05-15T01:22:16.174Z,55.95
2019-05-15T01:23:18.594Z,57.18
2019-05-15T01:24:16.139Z,57.82
2019-05-15T01:25:18.490Z,57.10
2019-05-15T01:26:18.668Z,57.31
2019-05-15T01:27:18.269Z,57.21
2019-05-15T01:28:18.161Z,57.10
2019-05-15T01:29:18.133Z,57.10
2019-05-15T01:30:17.890Z,57.21
2019-05-15T01:31:16.123Z,56.79
2019-05-15T01:32:16.071Z,57.10
2019-05-15T01:33:16.053Z,57.00
2019-05-15T01:34:18.333Z,57.08
2019-05-15T01:35:17.964Z,57.21
2019-05-15T01:36:16.008Z,57.18
2019-05-15T01:37:16.008Z,57.93
2019-05-15T01:38:16.011Z,57.51
2019-05-15T01:39:18.317Z,57.82
2019-05-15T01:40:18.139Z,57.51
2019-05-15T01:41:15.955Z,59.26
2019-05-15T01:42:15.962Z,58.75
2019-05-15T01:43:18.495Z,59.29
2019-05-15T01:44:17.866Z,59.50
2019-05-15T01:45:15.921Z,59.39
2019-05-15T01:46:15.905Z,59.19
2019-05-15T01:47:15.915Z,59.52
2019-05-15T01:48:15.883Z,59.83
2019-05-15T01:49:15.879Z,59.52
2019-05-15T01:50:15.857Z,60.45
2019-05-15T01:51:15.865Z,60.45
2019-05-15T01:52:15.854Z,60.86
2019-05-15T01:53:15.837Z,59.63
2019-05-15T01:54:15.812Z,61.07
2019-05-15T01:55:18.068Z,60.35
2019-05-15T01:56:15.796Z,61.91
2019-05-15T01:57:18.063Z,61.74
2019-05-15T01:58:18.283Z,63.31
2019-05-15T01:59:15.790Z,63.62
2019-05-15T02:00:15.786Z,63.65
2019-05-15T02:01:15.791Z,65.92
2019-05-15T02:02:15.800Z,67.21
2019-05-15T02:03:18.172Z,67.11
2019-05-15T02:04:15.705Z,69.00
2019-05-15T02:05:15.694Z,70.06
2019-05-15T02:06:15.696Z,69.17
2019-05-15T02:07:15.687Z,69.58
2019-05-15T02:08:15.682Z,70.30
2019-05-15T02:09:15.648Z,73.33
2019-05-15T02:10:15.638Z,71.47
2019-05-15T02:11:17.983Z,71.16
2019-05-15T02:12:15.621Z,71.26
2019-05-15T02:13:15.625Z,72.30
2019-05-15T02:14:15.607Z,71.33
2019-05-15T02:15:15.583Z,71.75
2019-05-15T02:16:15.574Z,71.06
2019-05-15T02:17:15.571Z,71.47
2019-05-15T02:18:15.569Z,71.16
2019-05-15T02:19:15.546Z,71.71
2019-05-15T02:20:15.542Z,71.71
2019-05-15T02:21:18.099Z,72.95
2019-05-15T02:22:15.520Z,74.02
2019-05-15T02:23:15.507Z,75.26
2019-05-15T02:24:15.489Z,76.01
2019-05-15T02:25:15.487Z,77.29
2019-05-15T02:26:15.474Z,76.57
2019-05-15T02:27:15.455Z,76.71
2019-05-15T02:28:15.482Z,76.50
2019-05-15T02:29:17.230Z,78.05
2019-05-15T02:30:24.297Z,77.15
2019-05-15T02:31:19.603Z,79.13
2019-05-15T02:32:15.405Z,78.81
2019-05-15T02:33:15.406Z,78.71
2019-05-15T02:34:19.202Z,78.02
2019-05-15T02:35:18.360Z,78.23
2019-05-15T02:36:15.362Z,78.64
2019-05-15T02:37:15.350Z,79.27
2019-05-15T02:38:15.694Z,79.71
2019-05-15T02:39:18.716Z,79.78
2019-05-15T02:40:15.334Z,80.65
2019-05-15T02:41:15.307Z,81.06
2019-05-15T02:42:15.296Z,80.79
2019-05-15T02:43:15.295Z,80.99
2019-05-15T02:44:15.275Z,81.20
2019-05-15T02:45:15.265Z,81.72
2019-05-15T02:46:15.263Z,82.80
2019-05-15T02:47:15.260Z,83.17
2019-05-15T02:48:15.251Z,83.48
2019-05-15T02:49:15.225Z,82.80
2019-05-15T02:50:15.210Z,82.59
2019-05-15T02:51:15.202Z,82.59
2019-05-15T02:52:15.218Z,83.01
2019-05-15T02:53:15.211Z,84.05
2019-05-15T02:54:15.167Z,84.05
2019-05-15T02:55:15.164Z,84.19
2019-05-15T02:56:15.148Z,84.19
2019-05-15T02:57:15.137Z,85.78
2019-05-15T02:58:15.134Z,86.82
2019-05-15T02:59:15.134Z,86.82
2019-05-15T03:00:35.273Z,86.96
2019-05-15T03:01:18.833Z,87.76
2019-05-15T03:02:15.087Z,86.61
2019-05-15T03:03:15.080Z,86.30
2019-05-15T03:04:15.059Z,86.09
2019-05-15T03:05:15.060Z,86.30
2019-05-15T03:06:15.044Z,86.30
2019-05-15T03:07:15.043Z,85.78
2019-05-15T03:08:15.042Z,86.30
2019-05-15T03:09:15.007Z,86.55
2019-05-15T03:10:14.995Z,86.76
2019-05-15T03:11:14.994Z,86.03
2019-05-15T03:12:14.994Z,87.27
2019-05-15T03:13:14.966Z,86.90
2019-05-15T03:14:14.962Z,87.11
2019-05-15T03:15:14.941Z,88.56
2019-05-15T03:16:14.934Z,88.46
2019-05-15T03:17:14.921Z,88.35
2019-05-15T03:18:14.921Z,88.35
2019-05-15T03:19:14.910Z,88.31
2019-05-15T03:20:14.887Z,88.42
2019-05-15T03:21:14.887Z,87.79
2019-05-15T03:22:14.879Z,87.38
2019-05-15T03:23:14.886Z,86.61
2019-05-15T03:24:14.920Z,87.13
2019-05-15T03:25:14.839Z,86.30
2019-05-15T03:26:14.820Z,86.68
2019-05-15T03:27:14.812Z,85.43
2019-05-15T03:28:14.803Z,85.39
2019-05-15T03:29:14.812Z,85.43
2019-05-15T03:30:15.161Z,84.70
2019-05-15T03:31:35.767Z,84.70
2019-05-15T03:32:27.635Z,84.91
2019-05-15T03:33:24.958Z,85.53
2019-05-15T03:34:23.101Z,85.74
2019-05-15T03:35:15.973Z,85.68
2019-05-15T03:36:22.073Z,85.78
2019-05-15T03:37:21.464Z,86.93
2019-05-15T03:38:15.693Z,87.34
2019-05-15T03:39:14.693Z,84.42
2019-05-15T03:40:14.673Z,84.88
2019-05-15T03:41:14.659Z,85.46
2019-05-15T03:42:14.663Z,84.56
2019-05-15T03:43:14.654Z,84.31
2019-05-15T03:44:14.640Z,83.80
2019-05-15T03:45:14.618Z,84.21
2019-05-15T03:46:14.611Z,83.17
2019-05-15T03:47:14.595Z,83.55
2019-05-15T03:48:14.585Z,82.48
2019-05-15T03:49:14.595Z,81.82
2019-05-15T03:50:14.577Z,83.41
2019-05-15T03:51:14.553Z,82.89
2019-05-15T03:52:14.543Z,83.31
2019-05-15T03:53:14.531Z,83.45
2019-05-15T03:54:14.533Z,83.86
2019-05-15T03:55:14.509Z,83.80
2019-05-15T03:56:14.508Z,84.63
2019-05-15T03:57:14.503Z,84.88
2019-05-15T03:58:14.477Z,85.60
2019-05-15T03:59:14.836Z,85.81
2019-05-15T04:00:14.455Z,86.02
2019-05-15T04:01:28.285Z,85.39
2019-05-15T04:02:15.433Z,85.39
2019-05-15T04:03:14.431Z,85.50
2019-05-15T04:04:14.413Z,85.29
2019-05-15T04:05:14.411Z,84.91
2019-05-15T04:06:14.391Z,85.39
2019-05-15T04:07:14.378Z,85.50
2019-05-15T04:08:14.369Z,85.39
2019-05-15T04:09:14.385Z,86.12
2019-05-15T04:10:14.357Z,86.12
2019-05-15T04:11:14.337Z,85.50
2019-05-15T04:12:14.327Z,85.50
2019-05-15T04:13:14.315Z,85.08
2019-05-15T04:14:14.303Z,84.00
2019-05-15T04:15:14.323Z,84.80
2019-05-15T04:16:14.286Z,84.59
2019-05-15T04:17:14.272Z,84.48
2019-05-15T04:18:14.264Z,84.59
2019-05-15T04:19:14.251Z,83.76
2019-05-15T04:20:14.250Z,83.41
2019-05-15T04:21:14.246Z,83.31
2019-05-15T04:22:14.219Z,83.20
2019-05-15T04:23:14.213Z,82.68
2019-05-15T04:24:14.198Z,83.20
2019-05-15T04:25:14.195Z,83.41
2019-05-15T04:26:14.175Z,83.41
2019-05-15T04:27:14.184Z,83.10
2019-05-15T04:28:14.152Z,81.92
2019-05-15T04:29:14.147Z,81.92
2019-05-15T04:30:14.148Z,81.09
2019-05-15T04:31:14.124Z,81.30
2019-05-15T04:32:14.112Z,83.37
2019-05-15T04:33:14.111Z,82.23
2019-05-15T04:34:14.095Z,81.40
2019-05-15T04:35:14.095Z,81.20
2019-05-15T04:36:14.083Z,81.47
2019-05-15T04:37:14.076Z,81.51
2019-05-15T04:38:14.061Z,81.20
2019-05-15T04:39:14.035Z,82.03
2019-05-15T04:40:14.039Z,82.13
2019-05-15T04:41:14.014Z,82.23
2019-05-15T04:42:14.004Z,82.54
2019-05-15T04:43:14.002Z,82.37
2019-05-15T04:44:13.986Z,82.48
2019-05-15T04:45:14.062Z,83.26
2019-05-15T04:46:13.969Z,83.41
2019-05-15T04:47:13.963Z,83.78
2019-05-15T04:48:13.937Z,83.06
2019-05-15T04:49:13.949Z,82.44
2019-05-15T04:50:13.928Z,81.78
2019-05-15T04:51:13.918Z,82.71
2019-05-15T04:52:13.949Z,82.19
2019-05-15T04:53:13.933Z,80.19
2019-05-15T04:54:13.892Z,79.77
2019-05-15T04:55:13.873Z,80.60
2019-05-15T04:56:13.864Z,79.77
2019-05-15T04:57:13.839Z,81.33
2019-05-15T04:58:13.832Z,82.67
2019-05-15T04:59:13.819Z,81.64
2019-05-15T05:00:13.821Z,81.54
2019-05-15T05:01:13.822Z,80.81
2019-05-15T05:02:24.199Z,80.46
2019-05-15T05:03:14.775Z,81.19
2019-05-15T05:04:13.765Z,81.09
2019-05-15T05:05:13.754Z,80.67
2019-05-15T05:06:13.761Z,79.15
2019-05-15T05:07:13.739Z,80.49
2019-05-15T05:08:13.736Z,78.42
2019-05-15T05:09:13.724Z,79.05
2019-05-15T05:10:13.702Z,81.11
2019-05-15T05:11:13.704Z,78.91
2019-05-15T05:12:13.679Z,78.39
2019-05-15T05:13:13.669Z,78.49
2019-05-15T05:14:13.665Z,78.77
2019-05-15T05:15:13.670Z,77.45
2019-05-15T05:16:13.647Z,76.21
2019-05-15T05:17:13.626Z,75.81
2019-05-15T05:18:13.614Z,76.56
2019-05-15T05:19:13.603Z,78.90
2019-05-15T05:20:13.593Z,78.80
2019-05-15T05:21:13.610Z,76.84
2019-05-15T05:22:13.653Z,79.11
2019-05-15T05:23:13.578Z,80.34
2019-05-15T05:24:13.550Z,78.49
2019-05-15T05:25:13.545Z,77.15
2019-05-15T05:26:13.602Z,78.49
2019-05-15T05:27:13.545Z,77.62
2019-05-15T05:28:13.527Z,79.83
2019-05-15T05:29:13.497Z,78.18
2019-05-15T05:30:13.497Z,75.15
2019-05-15T05:31:14.220Z,76.29
2019-05-15T05:32:27.180Z,74.08
2019-05-15T05:33:14.466Z,74.77
2019-05-15T05:34:13.444Z,77.28
2019-05-15T05:35:13.454Z,72.41
2019-05-15T05:36:13.432Z,72.38
2019-05-15T05:37:13.412Z,70.86
2019-05-15T05:38:13.406Z,69.94
2019-05-15T05:39:16.687Z,69.90
2019-05-15T05:40:14.399Z,72.17
2019-05-15T05:41:13.382Z,69.18
2019-05-15T05:42:13.419Z,67.95
2019-05-15T05:43:13.362Z,69.29
2019-05-15T05:44:13.335Z,67.10
2019-05-15T05:45:13.354Z,70.70
2019-05-15T05:46:13.345Z,72.96
2019-05-15T05:47:13.330Z,70.04
2019-05-15T05:48:13.291Z,69.53
2019-05-15T05:49:13.279Z,69.94
2019-05-15T05:50:13.273Z,67.79
2019-05-15T05:51:13.362Z,67.14
2019-05-15T05:52:13.259Z,65.77
2019-05-15T05:53:13.252Z,65.68
2019-05-15T05:54:13.227Z,65.46
2019-05-15T05:55:13.223Z,64.22
2019-05-15T05:56:13.214Z,58.85
2019-05-15T05:57:13.194Z,55.79
2019-05-15T05:58:13.194Z,56.78
2019-05-15T05:59:13.197Z,55.66
2019-05-15T06:00:13.175Z,55.00
2019-05-15T06:01:13.166Z,54.41
2019-05-15T06:02:13.140Z,52.61
2019-05-15T06:03:13.127Z,52.58
2019-05-15T06:04:13.129Z,51.03
2019-05-15T06:05:13.115Z,52.76
2019-05-15T06:06:13.112Z,51.56
2019-05-15T06:07:14.209Z,52.51
2019-05-15T06:08:13.088Z,49.39
2019-05-15T06:09:13.067Z,51.19
2019-05-15T06:10:13.083Z,49.31
2019-05-15T06:11:13.077Z,50.18
2019-05-15T06:12:13.030Z,49.33
2019-05-15T06:13:13.039Z,49.26
2019-05-15T06:14:13.014Z,51.34
2019-05-15T06:15:13.054Z,51.31
2019-05-15T06:16:13.006Z,51.62
2019-05-15T06:17:12.986Z,51.01
2019-05-15T06:18:12.980Z,51.03
2019-05-15T06:19:12.980Z,52.48
2019-05-15T06:20:12.965Z,51.62
2019-05-15T06:21:13.036Z,51.01
2019-05-15T06:22:12.987Z,51.61
2019-05-15T06:23:12.920Z,53.37
2019-05-15T06:24:13.288Z,52.94
2019-05-15T06:25:12.896Z,52.61
2019-05-15T06:26:12.894Z,53.19
2019-05-15T06:27:12.904Z,52.78
2019-05-15T06:28:12.865Z,51.06
2019-05-15T06:29:12.845Z,51.75
2019-05-15T06:30:19.442Z,51.54
2019-05-15T06:31:13.838Z,52.56
2019-05-15T06:32:12.815Z,51.67
2019-05-15T06:33:13.596Z,52.03
2019-05-15T06:34:12.798Z,49.79
2019-05-15T06:35:12.787Z,50.17
2019-05-15T06:36:12.779Z,50.90
2019-05-15T06:37:12.761Z,52.15
2019-05-15T06:38:12.784Z,51.49
2019-05-15T06:39:12.783Z,48.60
2019-05-15T06:40:12.727Z,49.62
2019-05-15T06:41:12.737Z,49.69
2019-05-15T06:42:12.711Z,48.93
2019-05-15T06:43:12.696Z,49.69
2019-05-15T06:44:12.682Z,51.06
2019-05-15T06:45:12.675Z,51.01
2019-05-15T06:46:12.658Z,50.81
2019-05-15T06:47:12.732Z,50.98
2019-05-15T06:48:12.651Z,50.20
2019-05-15T06:49:12.630Z,49.26
2019-05-15T06:50:12.619Z,49.89
2019-05-15T06:51:12.612Z,50.15
2019-05-15T06:52:12.607Z,47.99
2019-05-15T06:53:12.616Z,48.65
2019-05-15T06:54:12.609Z,49.76
2019-05-15T06:55:12.564Z,50.50
2019-05-15T06:56:12.560Z,49.44
2019-05-15T06:57:12.569Z,49.21
2019-05-15T06:58:12.532Z,49.39
2019-05-15T06:59:12.524Z,48.55
2019-05-15T07:00:12.507Z,50.04
2019-05-15T07:01:12.496Z,49.16
2019-05-15T07:02:12.520Z,49.87
2019-05-15T07:03:21.398Z,49.89
2019-05-15T07:04:13.467Z,50.76
2019-05-15T07:05:12.452Z,48.80
2019-05-15T07:06:12.444Z,50.13
2019-05-15T07:07:12.440Z,48.28
2019-05-15T07:08:12.436Z,47.23
2019-05-15T07:09:12.430Z,45.47
2019-05-15T07:10:12.402Z,45.29
2019-05-15T07:11:12.455Z,48.33
2019-05-15T07:12:12.394Z,44.56
2019-05-15T07:13:12.368Z,46.30
2019-05-15T07:14:12.362Z,47.24
2019-05-15T07:15:12.346Z,46.67
2019-05-15T07:16:12.332Z,45.39
2019-05-15T07:17:12.335Z,44.32
2019-05-15T07:18:12.362Z,45.47
2019-05-15T07:19:12.305Z,46.26
2019-05-15T07:20:12.288Z,46.43
2019-05-15T07:21:12.284Z,47.77
2019-05-15T07:22:12.299Z,46.12
2019-05-15T07:23:12.253Z,46.26
2019-05-15T07:24:12.269Z,45.29
2019-05-15T07:25:12.232Z,46.47
2019-05-15T07:26:12.221Z,47.36
2019-05-15T07:27:12.213Z,46.47
2019-05-15T07:28:12.211Z,46.37
2019-05-15T07:29:12.191Z,47.42
2019-05-15T07:30:12.502Z,45.75
2019-05-15T07:31:12.172Z,44.58
2019-05-15T07:32:12.152Z,44.06
2019-05-15T07:33:12.170Z,45.19
2019-05-15T07:34:12.142Z,45.63
2019-05-15T07:35:12.123Z,44.48
2019-05-15T07:36:12.121Z,43.75
2019-05-15T07:37:12.103Z,43.00
2019-05-15T07:38:12.142Z,46.24
2019-05-15T07:39:12.083Z,43.97
2019-05-15T07:40:12.072Z,43.26
2019-05-15T07:41:12.058Z,43.12
2019-05-15T07:42:12.055Z,43.02
2019-05-15T07:43:12.048Z,42.84
2019-05-15T07:44:12.040Z,42.23
2019-05-15T07:45:12.076Z,44.19
2019-05-15T07:46:12.023Z,41.87
2019-05-15T07:47:12.021Z,41.81
2019-05-15T07:48:12.016Z,41.28
2019-05-15T07:49:11.964Z,42.05
2019-05-15T07:50:11.964Z,43.49
2019-05-15T07:51:11.973Z,44.96
2019-05-15T07:52:11.963Z,41.79
2019-05-15T07:53:11.937Z,41.73
2019-05-15T07:54:11.910Z,41.83
2019-05-15T07:55:11.960Z,44.79
2019-05-15T07:56:12.519Z,41.55
2019-05-15T07:57:11.883Z,42.11
2019-05-15T07:58:11.884Z,43.73
2019-05-15T07:59:11.857Z,43.69
2019-05-15T08:00:11.859Z,41.73
2019-05-15T08:01:11.832Z,40.39
2019-05-15T08:02:11.823Z,41.46
2019-05-15T08:03:12.137Z,40.92
2019-05-15T08:04:24.993Z,41.24
2019-05-15T08:05:12.790Z,41.02
2019-05-15T08:06:11.791Z,42.01
2019-05-15T08:07:11.769Z,42.88
2019-05-15T08:08:11.769Z,42.64
2019-05-15T08:09:11.759Z,39.51
2019-05-15T08:10:11.736Z,40.37
2019-05-15T08:11:19.756Z,39.47
2019-05-15T08:12:12.725Z,40.17
2019-05-15T08:13:11.714Z,39.10
2019-05-15T08:14:11.742Z,41.28
2019-05-15T08:15:11.698Z,39.15
2019-05-15T08:16:11.672Z,41.25
2019-05-15T08:17:11.670Z,39.87
2019-05-15T08:18:13.007Z,39.73
2019-05-15T08:19:11.677Z,40.01
2019-05-15T08:20:11.638Z,40.59
2019-05-15T08:21:11.627Z,40.66
2019-05-15T08:22:14.973Z,39.48
2019-05-15T08:23:11.606Z,41.24
2019-05-15T08:24:11.594Z,40.27
2019-05-15T08:25:20.701Z,41.02
2019-05-15T08:26:12.594Z,39.30
2019-05-15T08:27:11.554Z,39.99
2019-05-15T08:28:11.544Z,39.24
2019-05-15T08:29:11.542Z,39.00
2019-05-15T08:30:11.523Z,40.19
2019-05-15T08:31:11.507Z,41.58
2019-05-15T08:32:11.531Z,41.52
2019-05-15T08:33:11.490Z,40.39
2019-05-15T08:34:15.874Z,39.91
2019-05-15T08:35:12.705Z,40.48
2019-05-15T08:36:11.456Z,38.84
2019-05-15T08:37:11.444Z,38.64
2019-05-15T08:38:14.239Z,40.94
2019-05-15T08:39:11.458Z,40.37
2019-05-15T08:40:11.411Z,39.14
2019-05-15T08:41:11.770Z,40.27
2019-05-15T08:42:11.393Z,40.59
2019-05-15T08:43:11.710Z,40.17
2019-05-15T08:44:11.385Z,39.95
2019-05-15T08:45:11.372Z,39.42
2019-05-15T08:46:11.375Z,39.24
2019-05-15T08:47:11.368Z,40.06
2019-05-15T08:48:11.325Z,40.06
2019-05-15T08:49:11.321Z,39.93
2019-05-15T08:50:11.311Z,39.61
2019-05-15T08:51:11.290Z,38.92
2019-05-15T08:52:11.325Z,39.70
2019-05-15T08:53:11.271Z,39.65
2019-05-15T08:54:11.272Z,39.43
2019-05-15T08:55:11.249Z,38.22
2019-05-15T08:56:14.633Z,38.59
2019-05-15T08:57:11.231Z,39.14
2019-05-15T08:58:14.107Z,38.62
2019-05-15T08:59:11.228Z,37.59
2019-05-15T09:00:11.194Z,36.87
2019-05-15T09:01:11.191Z,37.34
2019-05-15T09:02:11.168Z,38.92
2019-05-15T09:03:11.161Z,36.89
2019-05-15T09:04:26.124Z,38.50
2019-05-15T09:05:12.163Z,37.92
2019-05-15T09:06:11.154Z,37.63
2019-05-15T09:07:11.118Z,38.82
2019-05-15T09:08:11.103Z,40.34
2019-05-15T09:09:11.106Z,38.05
2019-05-15T09:10:11.089Z,36.07
2019-05-15T09:11:11.075Z,37.62
2019-05-15T09:12:11.099Z,36.30
2019-05-15T09:13:11.068Z,37.63
2019-05-15T09:14:11.067Z,36.42
2019-05-15T09:15:11.058Z,36.51
2019-05-15T09:16:11.019Z,38.22
2019-05-15T09:17:11.008Z,38.50
2019-05-15T09:18:15.852Z,36.61
2019-05-15T09:19:12.050Z,36.40
2019-05-15T09:20:10.976Z,39.06
2019-05-15T09:21:10.971Z,38.60
2019-05-15T09:22:10.960Z,38.22
2019-05-15T09:23:10.974Z,38.60
2019-05-15T09:24:10.939Z,36.91
2019-05-15T09:25:10.935Z,40.16
2019-05-15T09:26:10.942Z,38.26
2019-05-15T09:27:10.914Z,39.18
2019-05-15T09:28:10.916Z,38.88
2019-05-15T09:29:10.887Z,38.49
2019-05-15T09:30:10.926Z,39.22
2019-05-15T09:31:10.864Z,39.30
2019-05-15T09:32:12.594Z,38.90
2019-05-15T09:33:10.862Z,38.88
2019-05-15T09:34:10.857Z,38.57
2019-05-15T09:35:10.821Z,39.15
2019-05-15T09:36:10.798Z,37.80
2019-05-15T09:37:10.791Z,37.84
2019-05-15T09:38:10.777Z,37.73
2019-05-15T09:39:13.372Z,39.92
2019-05-15T09:40:10.772Z,38.75
2019-05-15T09:41:10.748Z,34.63
2019-05-15T09:42:10.748Z,36.59
2019-05-15T09:43:11.469Z,37.24
2019-05-15T09:44:10.721Z,38.32
2019-05-15T09:45:10.743Z,37.41
2019-05-15T09:46:10.697Z,37.29
2019-05-15T09:47:10.697Z,37.90
2019-05-15T09:48:14.482Z,37.33
2019-05-15T09:49:10.680Z,38.46
2019-05-15T09:50:10.659Z,39.83
2019-05-15T09:51:10.650Z,39.19
2019-05-15T09:52:10.639Z,38.15
2019-05-15T09:53:10.633Z,38.43
2019-05-15T09:54:10.612Z,37.18
2019-05-15T09:55:10.626Z,38.60
2019-05-15T09:56:10.584Z,37.65
2019-05-15T09:57:11.269Z,36.44
2019-05-15T09:58:10.579Z,36.87
2019-05-15T09:59:10.553Z,36.62
2019-05-15T10:00:10.557Z,36.33
2019-05-15T10:01:10.539Z,37.65
2019-05-15T10:02:10.521Z,37.68
2019-05-15T10:03:10.522Z,37.71
2019-05-15T10:04:10.498Z,36.51
2019-05-15T10:05:11.481Z,39.43
2019-05-15T10:06:10.493Z,36.39
2019-05-15T10:07:10.490Z,37.31
2019-05-15T10:08:10.472Z,37.62
2019-05-15T10:09:10.446Z,36.29
2019-05-15T10:10:10.475Z,37.21
2019-05-15T10:11:10.425Z,37.48
2019-05-15T10:12:10.416Z,37.87
2019-05-15T10:13:10.418Z,37.23
2019-05-15T10:14:10.421Z,35.73
2019-05-15T10:15:11.527Z,36.37
2019-05-15T10:16:10.376Z,38.23
2019-05-15T10:17:10.367Z,35.98
2019-05-15T10:18:10.365Z,35.19
2019-05-15T10:19:10.347Z,36.30
2019-05-15T10:20:10.343Z,36.77
2019-05-15T10:21:10.347Z,36.79
2019-05-15T10:22:10.322Z,37.19
2019-05-15T10:23:10.302Z,35.31
2019-05-15T10:24:10.290Z,35.03
2019-05-15T10:25:10.291Z,35.58
2019-05-15T10:26:13.590Z,37.58
2019-05-15T10:27:10.260Z,36.05
2019-05-15T10:28:10.249Z,35.51
2019-05-15T10:29:10.239Z,35.43
2019-05-15T10:30:10.240Z,36.93
2019-05-15T10:31:10.236Z,37.68
2019-05-15T10:32:10.208Z,39.17
2019-05-15T10:33:10.219Z,36.19
2019-05-15T10:34:10.185Z,39.07
2019-05-15T10:35:24.463Z,35.80
2019-05-15T10:36:11.167Z,35.68
2019-05-15T10:37:10.165Z,35.57
2019-05-15T10:38:10.144Z,34.19
2019-05-15T10:39:10.185Z,35.53
2019-05-15T10:40:10.144Z,36.57
2019-05-15T10:41:14.995Z,37.66
2019-05-15T10:42:11.103Z,37.68
2019-05-15T10:43:10.100Z,37.48
2019-05-15T10:44:10.099Z,37.14
2019-05-15T10:45:10.073Z,35.88
2019-05-15T10:46:13.493Z,38.18
2019-05-15T10:47:10.054Z,35.71
2019-05-15T10:48:10.033Z,34.52
2019-05-15T10:49:10.028Z,37.23
2019-05-15T10:50:10.028Z,36.13
2019-05-15T10:51:10.532Z,37.34
2019-05-15T10:52:11.381Z,35.55
2019-05-15T10:53:11.345Z,37.09
2019-05-15T10:54:09.998Z,37.90
2019-05-15T10:55:09.981Z,37.36
2019-05-15T10:56:09.946Z,36.81
2019-05-15T10:57:09.944Z,37.63
2019-05-15T10:58:14.154Z,37.23
2019-05-15T10:59:10.918Z,37.51
2019-05-15T11:00:09.920Z,37.48
2019-05-15T11:01:11.389Z,36.79
2019-05-15T11:02:09.886Z,37.56
2019-05-15T11:03:09.877Z,37.21
2019-05-15T11:04:09.863Z,35.71
2019-05-15T11:05:09.878Z,39.00
2019-05-15T11:06:09.849Z,33.77
2019-05-15T11:07:09.946Z,36.29
2019-05-15T11:08:09.826Z,33.18
2019-05-15T11:09:09.813Z,33.53
2019-05-15T11:10:09.816Z,37.16
2019-05-15T11:11:09.796Z,37.79
2019-05-15T11:12:09.848Z,33.37
2019-05-15T11:13:09.771Z,33.74
2019-05-15T11:14:09.758Z,34.84
2019-05-15T11:15:11.305Z,36.74
2019-05-15T11:16:09.735Z,37.46
2019-05-15T11:17:09.730Z,40.02
2019-05-15T11:18:09.726Z,34.72
2019-05-15T11:19:09.702Z,35.26
2019-05-15T11:20:09.707Z,38.53
2019-05-15T11:21:09.683Z,36.47
2019-05-15T11:22:09.683Z,36.73
2019-05-15T11:23:09.665Z,32.37
2019-05-15T11:24:09.652Z,35.26
2019-05-15T11:25:10.349Z,33.79
2019-05-15T11:26:09.651Z,32.33
2019-05-15T11:27:10.144Z,33.00
2019-05-15T11:28:09.625Z,36.44
2019-05-15T11:29:09.899Z,36.69
2019-05-15T11:30:09.632Z,36.00
2019-05-15T11:31:10.525Z,37.99
2019-05-15T11:32:09.580Z,35.78
2019-05-15T11:33:09.821Z,33.48
2019-05-15T11:34:09.606Z,35.63
2019-05-15T11:35:09.553Z,33.45
2019-05-15T11:36:09.545Z,33.94
2019-05-15T11:37:09.542Z,35.08
2019-05-15T11:38:10.227Z,37.19
2019-05-15T11:39:09.513Z,36.52
2019-05-15T11:40:10.245Z,36.70
2019-05-15T11:41:09.502Z,34.20
2019-05-15T11:42:09.481Z,35.14
2019-05-15T11:43:09.473Z,35.45
2019-05-15T11:44:09.450Z,35.68
2019-05-15T11:45:09.440Z,36.87
2019-05-15T11:46:10.105Z,35.21
2019-05-15T11:47:09.428Z,35.88
2019-05-15T11:48:09.417Z,33.36
2019-05-15T11:49:09.599Z,35.10
2019-05-15T11:50:09.400Z,36.96
2019-05-15T11:51:09.905Z,35.10
2019-05-15T11:52:09.379Z,34.47
2019-05-15T11:53:09.357Z,33.59
2019-05-15T11:54:09.352Z,33.08
2019-05-15T11:55:09.354Z,32.79
2019-05-15T11:56:09.691Z,33.84
2019-05-15T11:57:09.318Z,34.84
2019-05-15T11:58:09.614Z,36.57
2019-05-15T11:59:09.294Z,35.63
2019-05-15T12:00:15.986Z,37.19
2019-05-15T12:01:10.282Z,33.74
2019-05-15T12:02:09.262Z,35.97
2019-05-15T12:03:09.276Z,34.42
2019-05-15T12:04:09.535Z,33.81
2019-05-15T12:05:09.503Z,33.84
2019-05-15T12:06:18.465Z,33.44
2019-05-15T12:07:10.214Z,37.38
2019-05-15T12:08:12.429Z,34.44
2019-05-15T12:09:09.526Z,33.28
2019-05-15T12:10:10.571Z,34.39
2019-05-15T12:11:11.915Z,33.95
2019-05-15T12:12:10.226Z,34.33
2019-05-15T12:13:09.895Z,34.16
2019-05-15T12:14:09.139Z,33.47
2019-05-15T12:15:09.194Z,35.75
2019-05-15T12:16:09.135Z,33.67
2019-05-15T12:17:14.927Z,35.58
2019-05-15T12:18:10.102Z,37.60
2019-05-15T12:19:13.590Z,35.99
2019-05-15T12:20:10.925Z,36.57
2019-05-15T12:21:09.237Z,36.64
2019-05-15T12:22:09.062Z,36.04
2019-05-15T12:23:09.368Z,35.61
2019-05-15T12:24:09.202Z,34.49
2019-05-15T12:25:10.107Z,33.28
2019-05-15T12:26:09.305Z,32.67
2019-05-15T12:27:17.464Z,33.17
2019-05-15T12:28:10.050Z,32.26
2019-05-15T12:29:10.099Z,31.34
2019-05-15T12:30:10.140Z,33.59
2019-05-15T12:31:09.163Z,32.52
2019-05-15T12:32:25.398Z,31.80
2019-05-15T12:33:10.031Z,31.37
2019-05-15T12:34:09.272Z,31.29
2019-05-15T12:35:08.929Z,30.91
2019-05-15T12:36:10.615Z,30.80
2019-05-15T12:37:09.932Z,31.24
2019-05-15T12:38:10.192Z,33.65
2019-05-15T13:00:10.587Z,34.61
2019-05-15T13:01:17.528Z,36.32
2019-05-15T13:02:09.650Z,38.53
2019-05-15T13:03:09.182Z,36.44
2019-05-15T13:04:08.617Z,37.60
2019-05-15T13:05:08.675Z,37.19
2019-05-15T13:06:08.595Z,37.70
2019-05-15T13:07:15.794Z,36.81
2019-05-15T13:08:09.597Z,35.72
2019-05-15T13:09:08.833Z,36.22
2019-05-15T13:10:08.917Z,37.51
2019-05-15T13:11:11.606Z,37.92
2019-05-15T13:12:09.538Z,38.22
2019-05-15T13:13:09.737Z,36.20